ADDS METAR Data

Data at: 2104 UTC 22 May 2018

METAR for:KISP (Islip/Macarthur Arpt, NY, US)
Text:KISP 222056Z 11005KT 5SM -RA BR FEW020 SCT050 OVC080 16/14 A3006 RMK AO2 SLP178 P0007 60009 T01560144 58020
Temperature: 15.6°C ( 60°F)
Dewpoint: 14.4°C ( 58°F) [RH = 93%]
Pressure (altimeter):30.06 inches Hg (1018.0 mb) [Sea level pressure: 1017.8 mb]
Winds:from the ESE (110 degrees) at 6 MPH (5 knots; 2.6 m/s)
Visibility: 5 sm ( 8 km)
Ceiling:8000 feet AGL
Clouds: few clouds at 2000 feet AGL, scattered clouds at 5000 feet AGL, overcast cloud deck at 8000 feet AGL
Weather:-RA BR (light rain, mist)